createdAt,value
2023-04-03T00:05:03.231Z,-0.24
2023-04-03T00:10:06.817Z,-0.26
2023-04-03T00:15:10.399Z,-0.28
2023-04-03T00:20:13.145Z,-0.33
2023-04-03T00:25:16.023Z,-0.37
2023-04-03T00:30:21.098Z,-0.41
2023-04-03T00:35:25.412Z,-0.42
2023-04-03T00:40:29.358Z,-0.45
2023-04-03T00:45:38.858Z,-0.48
2023-04-03T00:50:43.659Z,-0.51
2023-04-03T00:55:48.603Z,-0.52
2023-04-03T01:00:58.571Z,-0.53
2023-04-03T01:06:01.919Z,-0.57
2023-04-03T01:11:04.777Z,-0.61
2023-04-03T01:16:08.275Z,-0.62
2023-04-03T01:21:32.822Z,-0.64
2023-04-03T01:26:36.732Z,-0.67
2023-04-03T01:32:05.880Z,-0.72
2023-04-03T01:37:08.807Z,-0.74
2023-04-03T01:42:12.598Z,-0.77
2023-04-03T01:47:15.498Z,-0.81
2023-04-03T01:52:18.423Z,-0.86
2023-04-03T01:57:21.231Z,-0.88
2023-04-03T02:02:24.078Z,-0.91
2023-04-03T02:07:27.078Z,-0.93
2023-04-03T02:12:30.131Z,-0.97
2023-04-03T02:17:32.994Z,-0.99
2023-04-03T02:22:36.443Z,-1.04
2023-04-03T02:27:39.690Z,-1.08
2023-04-03T02:32:43.578Z,-1.11
2023-04-03T02:37:46.651Z,-1.15
2023-04-03T02:42:49.423Z,-1.19
2023-04-03T02:52:54.951Z,-1.26
2023-04-03T02:57:57.854Z,-1.30
2023-04-03T03:03:00.902Z,-1.32
2023-04-03T03:08:03.641Z,-1.36
2023-04-03T03:13:06.438Z,-1.40
2023-04-03T03:18:09.194Z,-1.39
2023-04-03T03:23:12.097Z,-1.41
2023-04-03T03:28:15.030Z,-1.44
2023-04-03T03:33:18.571Z,-1.49
2023-04-03T03:38:21.548Z,-1.51
2023-04-03T03:43:24.363Z,-1.54
2023-04-03T03:48:27.261Z,-1.59
2023-04-03T03:53:30.040Z,-1.59
2023-04-03T03:58:33.422Z,-1.62
2023-04-03T04:03:36.357Z,-1.65
2023-04-03T04:08:39.140Z,-1.68
2023-04-03T04:13:41.880Z,-1.68
2023-04-03T04:18:44.781Z,-1.69
2023-04-03T04:23:47.546Z,-1.70
2023-04-03T04:28:50.450Z,-1.68
2023-04-03T04:33:55.590Z,-1.67
2023-04-03T04:38:59.548Z,-1.66
2023-04-03T04:44:02.325Z,-1.64
2023-04-03T04:49:05.248Z,-1.60
2023-04-03T04:54:08.056Z,-1.56
2023-04-03T04:59:11.022Z,-1.52
2023-04-03T05:04:14.597Z,-1.47
2023-04-03T05:09:17.596Z,-1.41
2023-04-03T05:14:20.933Z,-1.30
2023-04-03T05:19:23.679Z,-1.20
2023-04-03T05:24:27.652Z,-1.09
2023-04-03T05:29:31.142Z,-0.97
2023-04-03T05:34:34.481Z,-0.83
2023-04-03T05:39:39.412Z,-0.68
2023-04-03T05:44:42.798Z,-0.49
2023-04-03T05:49:46.452Z,-0.32
2023-04-03T05:54:51.988Z,-0.11
2023-04-03T05:59:55.304Z,1.40
2023-04-03T06:04:58.120Z,5.21
2023-04-03T06:10:02.407Z,7.57
2023-04-03T06:15:07.065Z,9.43
2023-04-03T06:20:11.877Z,10.76
2023-04-03T06:25:15.495Z,11.05
2023-04-03T06:30:18.412Z,11.97
2023-04-03T06:35:22.002Z,12.08
2023-04-03T06:40:27.222Z,9.72
2023-04-03T06:45:30.029Z,7.30
2023-04-03T06:50:33.386Z,5.71
2023-04-03T06:55:37.936Z,4.62
2023-04-03T07:00:46.151Z,3.79
2023-04-03T07:05:49.904Z,3.29
2023-04-03T07:10:57.329Z,3.26
2023-04-03T07:16:00.248Z,3.35
2023-04-03T07:21:03.823Z,3.46
2023-04-03T07:26:07.993Z,6.24
2023-04-03T07:31:14.755Z,9.14
2023-04-03T07:36:20.957Z,11.01
2023-04-03T07:41:26.416Z,10.96
2023-04-03T07:46:29.535Z,10.91
2023-04-03T07:51:33.036Z,10.24
2023-04-03T07:56:37.804Z,9.14
2023-04-03T08:01:46.772Z,8.48
2023-04-03T08:06:50.590Z,7.96
2023-04-03T08:11:54.564Z,7.46
2023-04-03T08:16:58.006Z,7.67
2023-04-03T08:22:04.134Z,7.03
2023-04-03T08:27:07.646Z,7.00
2023-04-03T08:32:10.622Z,6.55
2023-04-03T08:37:20.270Z,6.85
2023-04-03T08:42:39.496Z,7.52
2023-04-03T08:48:08.769Z,7.97
2023-04-03T08:53:24.810Z,7.56
2023-04-03T08:58:38.322Z,7.35
2023-04-03T09:03:42.127Z,6.94
2023-04-03T09:08:57.603Z,6.72
2023-04-03T09:14:06.270Z,6.57
2023-04-03T09:19:43.591Z,6.64
2023-04-03T09:24:51.227Z,6.35
2023-04-03T09:29:57.614Z,5.88
2023-04-03T09:35:19.128Z,5.48
2023-04-03T09:40:27.601Z,4.79
2023-04-03T09:45:33.885Z,4.45
2023-04-03T09:50:38.161Z,4.49
2023-04-03T09:55:45.753Z,4.68
2023-04-03T10:00:56.056Z,4.53
2023-04-03T10:06:00.132Z,4.28
2023-04-03T10:11:18.064Z,4.33
2023-04-03T10:16:46.625Z,4.40
2023-04-03T10:21:56.525Z,4.59
2023-04-03T10:27:40.952Z,4.58
2023-04-03T10:33:09.776Z,4.44
2023-04-03T10:38:38.789Z,4.25
2023-04-03T10:44:03.178Z,4.24
2023-04-03T10:49:26.511Z,4.34
2023-04-03T10:54:42.489Z,4.30
2023-04-03T10:59:58.558Z,4.28
2023-04-03T11:05:38.573Z,4.16
2023-04-03T11:10:48.904Z,4.16
2023-04-03T11:16:05.097Z,4.26
2023-04-03T11:21:37.148Z,4.37
2023-04-03T11:26:43.550Z,4.19
2023-04-03T11:32:13.073Z,4.19
2023-04-03T11:37:31.389Z,4.40
2023-04-03T11:42:43.714Z,4.73
2023-04-03T11:47:52.228Z,4.78
2023-04-03T11:53:19.944Z,4.79
2023-04-03T11:58:29.095Z,4.92
2023-04-03T12:03:41.745Z,5.20
2023-04-03T12:08:47.026Z,5.35
2023-04-03T12:13:49.801Z,5.17
2023-04-03T12:18:53.357Z,5.16
2023-04-03T12:24:04.251Z,5.02
2023-04-03T12:29:18.508Z,5.18
2023-04-03T12:34:44.371Z,5.43
2023-04-03T12:39:59.254Z,4.89
2023-04-03T12:45:20.686Z,4.85
2023-04-03T12:50:34.386Z,4.99
2023-04-03T12:55:37.442Z,5.29
2023-04-03T13:00:40.853Z,5.07
2023-04-03T13:05:46.729Z,4.91
2023-04-03T13:11:01.125Z,5.21
2023-04-03T13:16:11.579Z,5.21
2023-04-03T13:21:18.633Z,4.92
2023-04-03T13:26:24.048Z,5.01
2023-04-03T13:31:31.686Z,5.23
2023-04-03T13:36:41.528Z,4.94
2023-04-03T13:41:47.946Z,4.63
2023-04-03T13:46:57.299Z,4.86
2023-04-03T13:52:07.610Z,4.85
2023-04-03T13:57:17.721Z,4.91
2023-04-03T14:02:35.223Z,4.98
2023-04-03T14:07:38.962Z,4.86
2023-04-03T14:12:42.224Z,4.80
2023-04-03T14:17:45.264Z,4.60
2023-04-03T14:22:49.695Z,4.34
2023-04-03T14:27:55.312Z,4.46
2023-04-03T14:32:58.450Z,4.46
2023-04-03T14:38:01.318Z,4.36
2023-04-03T14:43:04.435Z,4.42
2023-04-03T14:48:17.389Z,4.50
2023-04-03T14:53:37.967Z,4.37
2023-04-03T14:58:41.857Z,4.26
2023-04-03T15:03:45.165Z,4.12
2023-04-03T15:08:48.515Z,4.05
2023-04-03T15:13:51.270Z,3.94
2023-04-03T15:18:54.177Z,3.88
2023-04-03T15:23:57.386Z,3.80
2023-04-03T15:29:00.355Z,3.70
2023-04-03T15:34:04.034Z,3.61
2023-04-03T15:39:07.089Z,3.45
2023-04-03T15:44:09.887Z,3.29
2023-04-03T15:49:13.559Z,3.18
2023-04-03T15:54:17.316Z,3.13
2023-04-03T15:59:20.645Z,3.02
2023-04-03T16:04:23.599Z,2.91
2023-04-03T16:09:26.413Z,2.88
2023-04-03T16:14:31.300Z,2.82
2023-04-03T16:19:34.334Z,2.61
2023-04-03T16:24:37.070Z,2.49
2023-04-03T16:29:39.901Z,2.45
2023-04-03T16:34:42.943Z,2.42
2023-04-03T16:39:45.864Z,2.36
2023-04-03T16:44:48.712Z,2.24
2023-04-03T16:49:51.557Z,2.15
2023-04-03T16:54:56.657Z,2.10
2023-04-03T16:59:59.714Z,2.04
2023-04-03T17:05:02.706Z,1.96
2023-04-03T17:10:06.340Z,1.88
2023-04-03T17:15:10.457Z,1.82
2023-04-03T17:20:13.744Z,1.72
2023-04-03T17:25:17.264Z,1.58
2023-04-03T17:30:20.099Z,1.50
2023-04-03T17:35:23.093Z,1.44
2023-04-03T17:40:25.884Z,1.34
2023-04-03T17:45:28.961Z,1.22
2023-04-03T17:50:33.392Z,1.09
2023-04-03T17:55:38.856Z,0.94
2023-04-03T18:00:42.743Z,0.82
2023-04-03T18:05:45.557Z,0.72
2023-04-03T18:10:48.433Z,0.60
2023-04-03T18:15:51.647Z,0.52
2023-04-03T18:20:54.463Z,0.44
2023-04-03T18:25:58.028Z,0.37
2023-04-03T18:31:03.019Z,0.31
2023-04-03T18:36:06.138Z,0.24
2023-04-03T18:41:09.589Z,0.19
2023-04-03T18:46:12.679Z,0.15
2023-04-03T18:51:16.074Z,0.14
2023-04-03T18:56:18.924Z,0.14
2023-04-03T19:01:22.006Z,0.13
2023-04-03T19:06:24.839Z,0.11
2023-04-03T19:11:30.082Z,0.05
2023-04-03T19:16:34.766Z,-0.02
2023-04-03T19:21:41.676Z,-0.09
2023-04-03T19:26:44.959Z,-0.14
2023-04-03T19:31:50.184Z,-0.22
2023-04-03T19:36:53.154Z,-0.29
2023-04-03T19:41:56.323Z,-0.29
2023-04-03T19:47:00.515Z,-0.30
2023-04-03T19:52:04.518Z,-0.34
2023-04-03T19:57:08.369Z,-0.41
2023-04-03T20:02:11.326Z,-0.47
2023-04-03T20:07:14.269Z,-0.55
2023-04-03T20:12:17.258Z,-0.62
2023-04-03T20:17:20.459Z,-0.69
2023-04-03T20:22:23.182Z,-0.76
2023-04-03T20:27:26.956Z,-0.81
2023-04-03T20:32:30.330Z,-0.88
2023-04-03T20:37:33.943Z,-0.93
2023-04-03T20:42:36.757Z,-0.98
2023-04-03T20:47:40.004Z,-1.03
2023-04-03T20:52:42.796Z,-1.09
2023-04-03T20:57:54.650Z,-1.14
2023-04-03T21:02:58.024Z,-1.18
2023-04-03T21:08:38.590Z,-1.23
2023-04-03T21:14:22.260Z,-1.30
2023-04-03T21:24:28.300Z,-1.43
2023-04-03T21:29:31.614Z,-1.48
2023-04-03T21:34:35.080Z,-1.53
2023-04-03T21:39:38.777Z,-1.59
2023-04-03T21:44:41.720Z,-1.67
2023-04-03T21:49:44.632Z,-1.72
2023-04-03T21:54:47.560Z,-1.76
2023-04-03T21:59:50.645Z,-1.78
2023-04-03T22:04:55.642Z,-1.80
2023-04-03T22:09:58.518Z,-1.83
2023-04-03T22:15:01.821Z,-1.87
2023-04-03T22:20:05.118Z,-1.89
2023-04-03T22:25:08.212Z,-1.92
2023-04-03T22:30:11.540Z,-1.95
2023-04-03T22:35:14.398Z,-1.98
2023-04-03T22:40:18.489Z,-1.99
2023-04-03T22:45:21.742Z,-2.01
2023-04-03T22:50:24.760Z,-2.02
2023-04-03T22:55:27.564Z,-2.04
2023-04-03T23:00:30.579Z,-2.06
2023-04-03T23:05:33.400Z,-2.08
2023-04-03T23:10:36.970Z,-2.10
2023-04-03T23:15:40.662Z,-2.14
2023-04-03T23:20:43.637Z,-2.19
2023-04-03T23:25:51.798Z,-2.23
2023-04-03T23:30:59.862Z,-2.24
2023-04-03T23:36:08.759Z,-2.22
2023-04-03T23:41:12.987Z,-2.16
2023-04-03T23:46:16.140Z,-2.11
2023-04-03T23:51:18.897Z,-2.07
2023-04-03T23:56:21.677Z,-2.06
